Terminal Aerodrome Forecast
Issued by NWS

Home | Current Version | Previous Version | Text Only | Print | Product List | Glossary On
Versions: 1 2 3 4 5 6 7 8 9 10 11 12 13 14
000
FTUS43 KICT 291700
TAFRSL
TAF
KRSL 291739Z 2918/3018 16005KT P6SM SKC
     FM300400 09007KT P6SM VCSH SCT040 BKN070
     FM301200 09007KT P6SM VCSH OVC040=

USA.gov is the U.S. government's official web portal to all federal, state and local government web resources and services.